Aérodrome :
LOGIN :

S'inscrire | Disclaimer

   EN    FR    IT 

 










Légende :    VFR   VFR Marginal   IFR   IFR Intensif   IFR Très Intensif
Visi : 
Plafond : 
>= 8 km
>= 3000ft
5 à 8 km
1000 à 3000 ft
1500m à 5 km
500 à 1000 ft
800 à 1500m
200 à 500 ft
< 800m
< 200 ft
Symboles :   Orages  Brouillard  Fortes neiges  Fortes précipitations  Vent > 20 kt
SIGMETs :   Divers  Orages  Givrage  Turbulence  Onde Orograph.  Cendres Volcan.







- Altitude de l'aérodrome : 184 ft
- Code IATA : BRU


EBBR - Bruxelles

DERNIER METAR :
  • 181050Z 17005KT 140V200 CAVOK 18/12 Q1013 NOSIG

METARs EXPIRÉS :
  • 181020Z 18005KT CAVOK 17/11 Q1013 NOSIG
  • 180950Z 18004KT CAVOK 16/11 Q1013 NOSIG
  • 180920Z 20005KT CAVOK 15/11 Q1013 NOSIG
  • 180850Z 17004KT 130V200 CAVOK 14/12 Q1013 NOSIG
  • 180820Z VRB02KT 6000 FEW006 12/10 Q1013 NOSIG

TAF TAF EBBR
Valide du 18 à 06h jusqu'au 19 à 12h UTC


180500Z 1806/1912 12005KT 0300 FG NSC
BECMG 1806/1807 3000 BR
BECMG 1807/1809 9999 NSW FEW030
Pas de NOTAMs connus pour ce terrain.



MET'MAP, la Météo Aéronautique d'un coup d'oeil ! - Copyright ORBIFLY Décembre 2007 - Disclaimer

ORBIFLY MET'MAP TEAM :

Programmation & Développement : Alexandra Zaïnal
Conception & Développement : Baudouin d'Aumeries
Co-Programmation & Développement : Marc-Olivier Méhu
Soutien technique & logistique : Manuel Goepfert

Contact : metmap@orbifly.com




SOURCES & CREDITS :

   NOAA